Terminal Aerodrome Forecast
Issued by NWS

Home | Current Version | Previous Version | Text Only | Print | Product List | Glossary On
Versions: 1 2 3 4 5 6 7 8 9 10 11 12 13 14 15 16 17 18 19 20 21 22 23 24 25 26 27
571
FTUS44 KLIX 282341
TAFMCB
TAF
KMCB 282341Z 2900/2924 17006KT P6SM SKC
     FM290900 15005KT 3SM BR BKN010
     FM291200 14006KT 1SM BR BKN008
     FM291400 15007KT 3SM BR BKN020
     FM291500 15007KT P6SM BKN040=

USA.gov is the U.S. government's official web portal to all federal, state and local government web resources and services.